Kezdőlap
METAR-TAF:

METAR-TAF

Repülőterek :

Galesburg Municipal Airport

Galesburg, Illinois, Amerikai Egyesült Államok

földrajzi szélesség: 40-56-17N, földrajzi hosszúság: 090-25-52W, magasság: 233 m

Jelenlegi meteorológiai megfigyelések

A jelentés 22 perccel ezelõtt készült, 21:15 UTC
Nyugati szél 11 kt széllökések: 16 kt
Hőmérséklet 25°C
Páratartalom 50%
Légköri nyomás 1011 hPa
Látótávolság: 16.1 km
Szórványos felhőzet 5500 lábon

METAR: KGBG 272115Z AUTO 26011G16KT 10SM SCT055 25/14 A2985 RMK AO2 T02500143

Idő: 16:37 (21:37 UTC)


TAF: hiányzik

Meteorológiai megfigyelések és előrejelzések több, mint 4000 repülőtéren (METAR és TAF jelentéseket).

A térképen piros és sárga pontok jelzik az elérhető meteorológiai állomásokat.

Mozgassa az egeret a pont fölött, hogy megjelenjen az állomás neve.

Azután kattintson az időjárási megfigyelések és előrejelzések megtekintéséhez.

A térkép megváltoztatása: kattintson a fekete keresztel jelölt zöld gombra ráközelítéshez, a vonallal jelölt zöld gombra távolításhoz, vagy a zöld nyilakra a szomszédos térképek eléréséhez.


METAR-TAF: